createdAt,value
2022-08-18T00:01:16.039Z,14.37
2022-08-18T00:03:57.360Z,14.60
2022-08-18T00:06:30.510Z,14.03
2022-08-18T00:08:59.335Z,14.97
2022-08-18T00:11:41.464Z,15.07
2022-08-18T00:14:22.660Z,16.00
2022-08-18T00:16:52.422Z,16.70
2022-08-18T00:19:20.295Z,16.17
2022-08-18T00:22:08.366Z,18.00
2022-08-18T00:24:48.639Z,17.60
2022-08-18T00:27:23.227Z,17.83
2022-08-18T00:29:52.322Z,16.93
2022-08-18T00:32:25.301Z,16.43
2022-08-18T00:34:55.500Z,17.33
2022-08-18T00:37:23.986Z,18.70
2022-08-18T00:39:52.859Z,18.10
2022-08-18T00:42:28.171Z,18.23
2022-08-18T00:45:04.362Z,19.00
2022-08-18T00:47:36.362Z,17.97
2022-08-18T00:50:14.999Z,17.20
2022-08-18T00:52:53.515Z,19.17
2022-08-18T00:55:20.935Z,18.27
2022-08-18T00:57:50.312Z,18.33
2022-08-18T01:00:17.922Z,18.53
2022-08-18T01:02:48.592Z,18.43
2022-08-18T01:05:33.964Z,17.87
2022-08-18T01:08:01.096Z,18.07
2022-08-18T01:10:28.077Z,19.90
2022-08-18T01:12:58.349Z,19.63
2022-08-18T01:15:28.106Z,18.10
2022-08-18T01:18:17.788Z,17.67
2022-08-18T01:21:13.031Z,17.57
2022-08-18T01:23:41.394Z,17.50
2022-08-18T01:26:09.408Z,17.87
2022-08-18T01:28:45.987Z,19.70
2022-08-18T01:31:30.776Z,21.83
2022-08-18T01:33:58.951Z,20.90
2022-08-18T01:36:25.872Z,22.87
2022-08-18T01:38:53.760Z,23.80
2022-08-18T01:41:30.384Z,23.27
2022-08-18T01:43:59.570Z,23.20
2022-08-18T01:46:28.400Z,23.13
2022-08-18T01:48:55.789Z,24.60
2022-08-18T01:51:39.966Z,23.03
2022-08-18T01:54:11.649Z,23.27
2022-08-18T01:56:39.091Z,22.93
2022-08-18T01:59:07.803Z,22.13
2022-08-18T02:01:48.517Z,23.13
2022-08-18T02:04:35.575Z,24.23
2022-08-18T02:07:07.015Z,23.63
2022-08-18T02:09:34.516Z,25.50
2022-08-18T02:12:02.485Z,21.33
2022-08-18T02:14:31.464Z,22.83
2022-08-18T02:17:01.627Z,22.30
2022-08-18T02:19:40.295Z,24.03
2022-08-18T02:22:09.333Z,24.60
2022-08-18T02:24:36.740Z,23.30
2022-08-18T02:27:05.918Z,23.40
2022-08-18T02:29:33.169Z,25.30
2022-08-18T02:32:00.036Z,24.33
2022-08-18T02:34:28.548Z,23.63
2022-08-18T02:36:56.283Z,24.33
2022-08-18T02:39:23.109Z,25.10
2022-08-18T02:41:51.347Z,26.23
2022-08-18T02:44:18.240Z,26.07
2022-08-18T02:46:46.334Z,24.50
2022-08-18T02:49:13.211Z,25.50
2022-08-18T02:51:40.311Z,25.07
2022-08-18T02:54:11.492Z,26.77
2022-08-18T02:56:42.374Z,27.30
2022-08-18T02:59:16.326Z,27.87
2022-08-18T03:01:48.979Z,28.83
2022-08-18T03:04:22.037Z,28.73
2022-08-18T03:06:52.578Z,26.57
2022-08-18T03:09:19.871Z,27.50
2022-08-18T03:11:47.679Z,28.10
2022-08-18T03:14:16.757Z,27.40
2022-08-18T03:16:53.703Z,27.40
2022-08-18T03:19:28.420Z,28.03
2022-08-18T03:21:59.446Z,27.10
2022-08-18T03:24:31.484Z,24.93
2022-08-18T03:27:00.104Z,26.27
2022-08-18T03:29:31.992Z,30.20
2022-08-18T03:32:02.392Z,27.27
2022-08-18T03:34:29.943Z,29.77
2022-08-18T03:36:56.976Z,29.63
2022-08-18T03:39:25.172Z,28.97
2022-08-18T03:41:58.508Z,35.00
2022-08-18T03:44:28.764Z,35.33
2022-08-18T03:46:55.909Z,32.67
2022-08-18T03:49:24.343Z,35.33
2022-08-18T03:51:51.815Z,33.70
2022-08-18T03:54:19.100Z,33.33
2022-08-18T03:56:49.422Z,32.37
2022-08-18T03:59:22.328Z,32.57
2022-08-18T04:01:51.374Z,33.17
2022-08-18T04:04:21.486Z,32.67
2022-08-18T04:06:53.974Z,34.27
2022-08-18T04:09:22.359Z,39.40
2022-08-18T04:11:49.927Z,45.87
2022-08-18T04:14:21.996Z,39.87
2022-08-18T04:16:49.300Z,37.17
2022-08-18T04:19:26.564Z,37.60
2022-08-18T04:21:58.567Z,39.63
2022-08-18T04:24:31.236Z,40.47
2022-08-18T04:27:01.124Z,41.70
2022-08-18T04:29:28.681Z,41.63
2022-08-18T04:31:56.143Z,42.13
2022-08-18T04:34:23.454Z,42.63
2022-08-18T04:36:54.445Z,42.30
2022-08-18T04:39:23.192Z,42.77
2022-08-18T04:41:50.482Z,42.97
2022-08-18T04:44:18.300Z,43.67
2022-08-18T04:46:58.852Z,41.73
2022-08-18T04:49:26.426Z,42.17
2022-08-18T04:52:38.361Z,43.67
2022-08-18T04:55:01.965Z,43.17
2022-08-18T04:57:34.045Z,43.73
2022-08-18T05:00:02.832Z,43.97
2022-08-18T05:02:31.559Z,44.37
2022-08-18T05:04:59.442Z,45.87
2022-08-18T05:07:26.383Z,42.90
2022-08-18T05:09:55.635Z,43.20
2022-08-18T05:12:25.171Z,43.30
2022-08-18T05:14:53.998Z,42.67
2022-08-18T05:17:21.813Z,43.03
2022-08-18T05:19:51.694Z,45.07
2022-08-18T05:22:24.274Z,45.13
2022-08-18T05:24:58.391Z,45.43
2022-08-18T05:27:25.274Z,45.60
2022-08-18T05:29:53.269Z,45.13
2022-08-18T05:32:38.274Z,46.07
2022-08-18T05:35:12.285Z,46.37
2022-08-18T05:37:58.760Z,45.37
2022-08-18T05:40:26.057Z,46.50
2022-08-18T05:42:57.450Z,47.20
2022-08-18T05:45:24.894Z,47.70
2022-08-18T05:47:59.477Z,47.20
2022-08-18T05:50:27.890Z,48.00
2022-08-18T05:53:13.729Z,46.27
2022-08-18T05:56:10.301Z,47.87
2022-08-18T05:58:40.760Z,48.33
2022-08-18T06:01:19.708Z,49.73
2022-08-18T06:03:50.384Z,49.57
2022-08-18T06:06:21.649Z,49.57
2022-08-18T06:09:20.267Z,51.63
2022-08-18T06:11:49.448Z,48.63
2022-08-18T06:14:17.063Z,51.43
2022-08-18T06:17:10.444Z,52.03
2022-08-18T06:19:52.898Z,50.47
2022-08-18T06:22:52.414Z,50.03
2022-08-18T06:25:25.216Z,51.50
2022-08-18T06:27:55.721Z,51.33
2022-08-18T06:30:33.339Z,47.97
2022-08-18T06:33:25.680Z,48.53
2022-08-18T06:35:58.652Z,48.10
2022-08-18T06:38:45.582Z,50.97
2022-08-18T06:41:41.652Z,47.90
2022-08-18T06:44:51.726Z,47.37
2022-08-18T06:47:35.295Z,44.37
2022-08-18T06:50:13.704Z,46.07
2022-08-18T06:53:02.172Z,45.03
2022-08-18T06:55:37.070Z,44.33
2022-08-18T06:58:18.001Z,47.33
2022-08-18T07:00:54.917Z,45.23
2022-08-18T07:03:44.977Z,44.83
2022-08-18T07:06:24.258Z,43.87
2022-08-18T07:08:53.845Z,39.47
2022-08-18T07:11:28.719Z,39.70
2022-08-18T07:14:15.436Z,37.00
2022-08-18T07:16:58.393Z,35.43
2022-08-18T07:19:30.177Z,31.27
2022-08-18T07:22:18.124Z,31.77
2022-08-18T07:24:48.991Z,32.90
2022-08-18T07:27:22.794Z,32.13
2022-08-18T07:29:59.699Z,32.50
2022-08-18T07:32:34.549Z,32.80
2022-08-18T07:35:03.713Z,33.53
2022-08-18T07:37:44.122Z,32.03
2022-08-18T07:40:26.619Z,30.73
2022-08-18T07:43:02.556Z,31.30
2022-08-18T07:45:32.828Z,30.13
2022-08-18T07:48:37.201Z,28.63
2022-08-18T07:51:33.315Z,28.97
2022-08-18T07:54:48.242Z,31.60
2022-08-18T07:57:21.409Z,30.13
2022-08-18T07:59:56.276Z,28.50
2022-08-18T08:02:59.201Z,27.53
2022-08-18T08:05:45.139Z,28.30
2022-08-18T08:08:38.034Z,30.23
2022-08-18T08:11:27.479Z,27.67
2022-08-18T08:14:16.265Z,27.70
2022-08-18T08:16:47.147Z,28.43
2022-08-18T08:19:42.558Z,27.73
2022-08-18T08:22:29.336Z,27.73
2022-08-18T08:25:46.337Z,28.03
2022-08-18T08:28:42.630Z,25.13
2022-08-18T08:31:37.405Z,26.93
2022-08-18T08:34:21.703Z,26.93
2022-08-18T08:36:50.581Z,26.27
2022-08-18T08:39:36.751Z,25.10
2022-08-18T08:42:30.897Z,24.90
2022-08-18T08:45:25.866Z,24.10
2022-08-18T08:48:28.756Z,24.30
2022-08-18T08:51:01.761Z,24.60
2022-08-18T08:53:34.757Z,24.57
2022-08-18T08:56:07.725Z,22.13
2022-08-18T08:58:40.864Z,25.80
2022-08-18T09:01:17.379Z,23.37
2022-08-18T09:03:50.876Z,24.50
2022-08-18T09:06:41.756Z,24.13
2022-08-18T09:09:21.197Z,24.13
2022-08-18T09:12:13.549Z,21.53
2022-08-18T09:15:09.092Z,23.43
2022-08-18T09:17:50.771Z,27.63
2022-08-18T09:20:49.162Z,36.07
2022-08-18T09:23:29.291Z,21.43
2022-08-18T09:26:00.913Z,21.63
2022-08-18T09:28:27.853Z,19.77
2022-08-18T09:31:08.960Z,18.37
2022-08-18T09:33:48.568Z,20.77
2022-08-18T09:36:48.272Z,19.47
2022-08-18T09:39:54.908Z,19.93
2022-08-18T09:45:33.525Z,18.83
2022-08-18T09:48:28.416Z,17.00
2022-08-18T09:50:37.043Z,18.87
2022-08-18T09:51:20.303Z,16.93
2022-08-18T09:53:47.416Z,21.90
2022-08-18T10:01:56.092Z,19.30
2022-08-18T10:04:49.431Z,18.27
2022-08-18T10:07:38.921Z,20.17
2022-08-18T10:11:00.502Z,19.67
2022-08-18T10:13:48.317Z,20.97
2022-08-18T10:16:25.935Z,20.30
2022-08-18T10:19:16.882Z,16.97
2022-08-18T10:22:00.295Z,20.77
2022-08-18T10:24:51.713Z,20.00
2022-08-18T10:27:44.706Z,17.17
2022-08-18T10:30:34.638Z,31.30
2022-08-18T10:33:17.629Z,22.07
2022-08-18T10:35:58.533Z,21.37
2022-08-18T10:41:31.029Z,16.83
2022-08-18T10:43:59.487Z,15.93
2022-08-18T10:46:34.343Z,19.20
2022-08-18T10:49:13.064Z,20.13
2022-08-18T10:51:59.247Z,16.53
2022-08-18T10:58:14.417Z,19.47
2022-08-18T11:01:06.531Z,18.20
2022-08-18T11:04:27.455Z,17.20
2022-08-18T11:07:07.768Z,18.80
2022-08-18T11:09:36.930Z,16.97
2022-08-18T11:12:11.811Z,17.00
2022-08-18T11:14:51.874Z,17.10
2022-08-18T11:17:32.023Z,17.20
2022-08-18T11:20:01.765Z,16.77
2022-08-18T11:22:34.460Z,14.77
2022-08-18T11:25:17.535Z,14.70
2022-08-18T11:27:47.267Z,14.80
2022-08-18T11:30:17.248Z,14.20
2022-08-18T11:32:52.193Z,14.10
2022-08-18T11:35:25.676Z,15.20
2022-08-18T11:37:58.024Z,15.37
2022-08-18T11:41:09.126Z,16.13
2022-08-18T11:43:21.605Z,17.03
2022-08-18T11:45:58.226Z,17.20
2022-08-18T11:48:39.015Z,15.90
2022-08-18T11:51:25.594Z,19.50
2022-08-18T11:54:18.618Z,16.97
2022-08-18T11:56:48.054Z,16.50
2022-08-18T11:59:53.896Z,12.90
2022-08-18T12:02:18.698Z,14.37
2022-08-18T12:04:51.050Z,14.17
2022-08-18T12:07:30.181Z,17.47
2022-08-18T12:10:26.519Z,14.88
2022-08-18T12:12:59.994Z,14.07
2022-08-18T12:15:47.046Z,13.97
2022-08-18T12:18:28.295Z,14.80
2022-08-18T12:20:58.471Z,15.10
2022-08-18T12:23:26.196Z,15.87
2022-08-18T12:25:53.300Z,14.57
2022-08-18T12:28:22.490Z,15.00
2022-08-18T12:30:56.017Z,15.30
2022-08-18T12:33:34.449Z,14.80
2022-08-18T12:36:15.809Z,14.90
2022-08-18T12:38:44.530Z,16.03
2022-08-18T12:41:24.905Z,16.10
2022-08-18T12:43:58.543Z,14.90
2022-08-18T12:46:31.800Z,13.33
2022-08-18T12:48:59.458Z,13.93
2022-08-18T12:51:30.790Z,14.57
2022-08-18T12:54:00.281Z,15.63
2022-08-18T12:56:30.956Z,15.93
2022-08-18T12:59:04.186Z,15.33
2022-08-18T13:01:34.008Z,15.87
2022-08-18T13:04:13.090Z,14.77
2022-08-18T13:06:59.222Z,13.77
2022-08-18T13:09:35.183Z,12.80
2022-08-18T13:12:20.816Z,15.20
2022-08-18T13:14:48.678Z,14.67
2022-08-18T13:17:32.098Z,15.57
2022-08-18T13:20:13.524Z,15.13
2022-08-18T13:22:41.626Z,12.90
2022-08-18T13:25:13.187Z,10.07
2022-08-18T13:28:00.774Z,10.73
2022-08-18T13:30:32.123Z,9.43
2022-08-18T13:33:05.770Z,9.07
2022-08-18T13:35:54.174Z,8.60
2022-08-18T13:38:27.123Z,7.93
2022-08-18T13:40:59.779Z,8.97
2022-08-18T13:43:32.037Z,8.67
2022-08-18T13:45:59.979Z,7.57
2022-08-18T13:48:28.526Z,8.93
2022-08-18T13:51:00.963Z,10.07
2022-08-18T13:53:29.892Z,9.63
2022-08-18T13:55:59.614Z,8.10
2022-08-18T13:58:28.259Z,7.50
2022-08-18T14:01:39.484Z,7.43
2022-08-18T14:03:53.374Z,7.00
2022-08-18T14:06:22.619Z,7.90
2022-08-18T14:08:52.579Z,7.90
2022-08-18T14:11:27.775Z,8.80
2022-08-18T14:14:02.085Z,7.97
2022-08-18T14:16:30.832Z,9.30
2022-08-18T14:19:17.852Z,8.77
2022-08-18T14:22:11.524Z,8.77
2022-08-18T14:24:59.259Z,8.87
2022-08-18T14:27:35.537Z,8.80
2022-08-18T14:30:06.965Z,8.10
2022-08-18T14:32:36.359Z,7.27
2022-08-18T14:35:31.721Z,8.97
2022-08-18T14:37:53.693Z,7.50
2022-08-18T14:40:23.767Z,6.70
2022-08-18T14:42:54.323Z,7.50
2022-08-18T14:45:31.407Z,7.10
2022-08-18T14:48:06.451Z,6.77
2022-08-18T14:50:34.796Z,6.77
2022-08-18T14:53:02.651Z,7.47
2022-08-18T14:55:30.546Z,7.50
2022-08-18T14:57:59.358Z,6.40
2022-08-18T15:00:27.740Z,6.93
2022-08-18T15:02:55.301Z,6.17
2022-08-18T15:05:24.393Z,6.00
2022-08-18T15:07:52.769Z,6.80
2022-08-18T15:10:23.476Z,6.80
2022-08-18T15:13:04.557Z,6.07
2022-08-18T15:15:50.544Z,6.10
2022-08-18T15:18:22.690Z,6.27
2022-08-18T15:21:19.643Z,6.57
2022-08-18T15:24:20.084Z,8.13
2022-08-18T15:26:51.840Z,7.47
2022-08-18T15:29:28.004Z,7.60
2022-08-18T15:32:05.334Z,7.23
2022-08-18T15:34:45.954Z,7.57
2022-08-18T15:37:14.113Z,7.13
2022-08-18T15:39:41.660Z,8.17
2022-08-18T15:42:10.792Z,7.57
2022-08-18T15:44:38.247Z,7.20
2022-08-18T15:47:09.351Z,8.70
2022-08-18T15:49:36.655Z,8.03
2022-08-18T15:52:04.187Z,8.30
2022-08-18T15:54:31.323Z,9.30
2022-08-18T15:56:58.954Z,24.40
2022-08-18T15:59:39.985Z,19.13
2022-08-18T16:02:11.456Z,26.10
2022-08-18T16:04:41.374Z,16.03
2022-08-18T16:07:12.888Z,9.57
2022-08-18T16:09:39.897Z,9.10
2022-08-18T16:12:09.317Z,10.10
2022-08-18T16:14:40.689Z,9.80
2022-08-18T16:17:09.422Z,11.77
2022-08-18T16:19:45.409Z,10.67
2022-08-18T16:22:13.455Z,10.60
2022-08-18T16:24:40.814Z,11.10
2022-08-18T16:27:08.829Z,9.97
2022-08-18T16:29:36.584Z,11.10
2022-08-18T16:32:04.394Z,11.03
2022-08-18T16:34:43.442Z,10.90
2022-08-18T16:37:11.169Z,11.10
2022-08-18T16:39:39.510Z,10.43
2022-08-18T16:42:07.890Z,10.87
2022-08-18T16:44:36.545Z,10.80
2022-08-18T16:47:07.741Z,11.87
2022-08-18T16:49:35.975Z,10.50
2022-08-18T16:52:03.498Z,10.57
2022-08-18T16:54:30.928Z,11.87
2022-08-18T16:56:58.335Z,11.77
2022-08-18T16:59:44.549Z,11.27
2022-08-18T17:02:33.109Z,10.90
2022-08-18T17:05:02.743Z,9.53
2022-08-18T17:07:31.635Z,9.97
2022-08-18T17:10:00.304Z,10.27
2022-08-18T17:12:30.040Z,9.73
2022-08-18T17:15:03.799Z,9.37
2022-08-18T17:17:31.887Z,10.00
2022-08-18T17:19:59.437Z,9.10
2022-08-18T17:22:27.221Z,9.30
2022-08-18T17:25:00.534Z,8.30
2022-08-18T17:27:37.319Z,9.70
2022-08-18T17:30:22.820Z,9.10
2022-08-18T17:33:32.982Z,8.67
2022-08-18T17:36:05.577Z,8.60
2022-08-18T17:38:36.588Z,7.83
2022-08-18T17:41:07.146Z,8.07
2022-08-18T17:46:28.306Z,7.10
2022-08-18T17:49:25.393Z,8.40
2022-08-18T17:51:55.425Z,8.50
2022-08-18T17:54:37.018Z,8.27
2022-08-18T17:57:11.247Z,7.20
2022-08-18T17:59:52.016Z,7.37
2022-08-18T18:02:29.626Z,7.50
2022-08-18T18:08:57.128Z,9.40
2022-08-18T18:11:31.511Z,8.07
2022-08-18T18:14:24.470Z,7.47
2022-08-18T18:17:02.369Z,6.67
2022-08-18T18:19:33.102Z,7.20
2022-08-18T18:22:11.353Z,6.60
2022-08-18T18:24:39.989Z,6.57
2022-08-18T18:27:28.894Z,6.70
2022-08-18T18:30:06.168Z,6.00
2022-08-18T18:32:40.256Z,6.37
2022-08-18T18:35:14.142Z,6.50
2022-08-18T18:41:02.369Z,6.53
2022-08-18T18:44:04.981Z,6.43
2022-08-18T18:46:34.539Z,6.50
2022-08-18T18:49:10.676Z,6.20
2022-08-18T18:52:02.195Z,6.37
2022-08-18T18:54:36.394Z,6.60
2022-08-18T18:57:10.914Z,5.87
2022-08-18T19:00:00.752Z,5.97
2022-08-18T19:02:48.149Z,6.13
2022-08-18T19:05:35.901Z,5.93
2022-08-18T19:08:18.044Z,7.03
2022-08-18T19:11:00.989Z,5.67
2022-08-18T19:13:36.043Z,6.40
2022-08-18T19:16:34.054Z,6.63
2022-08-18T19:19:36.890Z,7.13
2022-08-18T19:25:24.845Z,6.63
2022-08-18T19:28:09.800Z,6.27
2022-08-18T19:30:40.634Z,6.80
2022-08-18T19:33:10.277Z,6.80
2022-08-18T19:35:58.631Z,6.57
2022-08-18T19:39:02.697Z,6.80
2022-08-18T19:41:45.831Z,6.73
2022-08-18T19:44:29.133Z,5.83
2022-08-18T19:47:15.996Z,6.90
2022-08-18T19:50:11.904Z,6.60
2022-08-18T19:53:04.847Z,7.43
2022-08-18T19:56:10.297Z,6.47
2022-08-18T19:59:15.773Z,6.23
2022-08-18T20:02:34.103Z,6.50
2022-08-18T20:05:07.181Z,6.57
2022-08-18T20:07:56.599Z,6.67
2022-08-18T20:10:38.855Z,6.63
2022-08-18T20:13:24.208Z,6.67
2022-08-18T20:15:59.699Z,6.17
2022-08-18T20:18:35.312Z,6.10
2022-08-18T20:21:15.811Z,6.67
2022-08-18T20:23:58.189Z,6.43
2022-08-18T20:26:41.146Z,6.03
2022-08-18T20:29:16.047Z,6.60
2022-08-18T20:31:50.046Z,6.73
2022-08-18T20:34:25.947Z,7.20
2022-08-18T20:36:53.643Z,7.77
2022-08-18T20:39:30.134Z,7.00
2022-08-18T20:42:00.083Z,7.27
2022-08-18T20:44:49.665Z,6.40
2022-08-18T20:47:32.360Z,6.40
2022-08-18T20:50:23.378Z,6.33
2022-08-18T20:53:15.390Z,7.97
2022-08-18T20:56:31.277Z,7.90
2022-08-18T20:59:08.636Z,7.30
2022-08-18T21:01:38.702Z,7.07
2022-08-18T21:04:06.999Z,7.33
2022-08-18T21:06:44.717Z,6.37
2022-08-18T21:09:17.847Z,7.13
2022-08-18T21:11:46.272Z,6.80
2022-08-18T21:14:24.159Z,6.63
2022-08-18T21:16:55.773Z,6.50
2022-08-18T21:19:29.004Z,5.83
2022-08-18T21:22:23.934Z,6.10
2022-08-18T21:24:54.131Z,6.90
2022-08-18T21:27:29.360Z,6.87
2022-08-18T21:30:07.425Z,6.50
2022-08-18T21:32:37.202Z,6.27
2022-08-18T21:35:42.541Z,6.87
2022-08-18T21:38:12.599Z,7.00
2022-08-18T21:40:46.811Z,6.70
2022-08-18T21:43:58.357Z,6.57
2022-08-18T21:46:29.084Z,6.53
2022-08-18T21:49:03.302Z,6.70
2022-08-18T21:51:42.395Z,6.97
2022-08-18T21:54:12.760Z,6.47
2022-08-18T21:56:40.325Z,6.43
2022-08-18T21:59:23.457Z,5.80
2022-08-18T22:01:54.355Z,5.87
2022-08-18T22:04:37.153Z,6.20
2022-08-18T22:07:34.791Z,6.57
2022-08-18T22:10:26.183Z,6.43
2022-08-18T22:13:17.013Z,5.60
2022-08-18T22:16:12.915Z,5.83
2022-08-18T22:18:40.121Z,5.83
2022-08-18T22:21:37.832Z,5.60
2022-08-18T22:24:20.033Z,6.10
2022-08-18T22:27:12.448Z,6.27
2022-08-18T22:29:50.837Z,6.07
2022-08-18T22:32:21.561Z,6.57
2022-08-18T22:34:53.393Z,5.83
2022-08-18T22:37:26.090Z,5.87
2022-08-18T22:40:06.169Z,6.40
2022-08-18T22:42:33.789Z,6.17
2022-08-18T22:45:04.602Z,6.70
2022-08-18T22:47:43.157Z,5.60
2022-08-18T22:50:13.245Z,6.03
2022-08-18T22:52:43.138Z,6.07
2022-08-18T22:55:13.159Z,6.17
2022-08-18T22:57:42.960Z,6.60
2022-08-18T23:00:17.315Z,6.23
2022-08-18T23:02:45.184Z,6.53
2022-08-18T23:05:12.316Z,6.97
2022-08-18T23:07:39.362Z,6.80
2022-08-18T23:10:13.438Z,6.10
2022-08-18T23:12:43.648Z,6.57
2022-08-18T23:15:13.067Z,6.47
2022-08-18T23:17:42.310Z,6.53
2022-08-18T23:20:18.014Z,6.20
2022-08-18T23:22:47.781Z,6.40
2022-08-18T23:25:16.675Z,6.40
2022-08-18T23:27:43.769Z,6.17
2022-08-18T23:30:11.689Z,6.77
2022-08-18T23:32:38.689Z,6.73
2022-08-18T23:35:05.786Z,6.90
2022-08-18T23:37:32.894Z,6.70
2022-08-18T23:40:00.389Z,6.50
2022-08-18T23:42:27.471Z,6.60
2022-08-18T23:44:58.923Z,6.67
2022-08-18T23:47:26.302Z,7.37
2022-08-18T23:49:53.803Z,6.33
2022-08-18T23:52:21.531Z,6.70
2022-08-18T23:54:48.569Z,6.87
2022-08-18T23:57:16.484Z,6.33
2022-08-18T23:59:43.378Z,6.37
